Time;durP1;ratioP1;P1;durP2;ratioP2;P2;SDS_P1;SDS_P2;PMS_P1;PMS_P2;Temp;Humidity;BMP_temperature;BMP_pressure;BME280_temperature;BME280_humidity;BME280_pressure;Samples;Min_cycle;Max_cycle;Signal;HPM_P1;HPM_P2
2024/01/31 00:00:49;;;;;;;;;;;15.10;78.30;;;;;;3967932;29;20006;-42
2024/01/31 00:03:31;;;;;;;;;;;15.00;78.30;;;;;;3941292;29;19937;-42
2024/01/31 00:06:12;;;;;;;;;;;15.00;78.40;;;;;;3957804;29;19936;-43
2024/01/31 00:08:54;;;;;;;;;;;15.00;78.60;;;;;;3958292;29;20057;-47
2024/01/31 00:11:35;;;;;;;;;;;15.00;78.60;;;;;;3968180;29;19932;-48
2024/01/31 00:14:18;;;;;;;;;;;15.00;78.70;;;;;;3981754;29;20024;-46
2024/01/31 00:17:06;;;;;;;;;;;15.00;78.90;;;;;;3975905;29;19932;-46
2024/01/31 00:19:47;;;;;;;;;;;14.90;78.90;;;;;;3951916;29;19937;-46
2024/01/31 00:22:28;;;;;;;;;;;14.90;79.00;;;;;;3965787;29;20334;-46
2024/01/31 00:25:09;;;;;;;;;;;14.90;79.10;;;;;;3960790;29;19972;-46
2024/01/31 00:27:50;;;;;;;;;;;14.90;79.20;;;;;;3940448;29;19932;-46
2024/01/31 00:30:32;;;;;;;;;;;14.90;79.30;;;;;;3951419;29;19972;-46
2024/01/31 00:33:16;;;;;;;;;;;14.90;79.30;;;;;;3965462;29;19932;-48
2024/01/31 00:35:58;;;;;;;;;;;14.90;79.40;;;;;;3966123;29;20016;-49
2024/01/31 00:38:42;;;;;;;;;;;14.90;79.40;;;;;;3965853;29;19936;-49
2024/01/31 00:41:26;;;;;;;;;;;14.90;79.60;;;;;;3965123;29;19961;-48
2024/01/31 00:44:06;;;;;;;;;;;14.90;79.60;;;;;;3961562;29;20098;-49
2024/01/31 00:46:49;;;;;;;;;;;14.90;79.70;;;;;;3967089;29;19935;-49
2024/01/31 00:49:30;;;;;;;;;;;14.90;79.70;;;;;;3967044;29;19931;-47
2024/01/31 00:52:13;;;;;;;;;;;14.90;79.70;;;;;;3955253;29;19997;-46
2024/01/31 00:54:55;;;;;;;;;;;14.80;80.60;;;;;;3951305;29;19933;-49
2024/01/31 00:57:36;;;;;;;;;;;14.80;79.80;;;;;;3951818;29;20305;-49
2024/01/31 01:00:17;;;;;;;;;;;14.80;79.90;;;;;;3951974;29;19933;-45
2024/01/31 01:03:00;;;;;;;;;;;14.80;80.10;;;;;;3974944;29;19940;-47
2024/01/31 01:05:40;;;;;;;;;;;14.90;80.20;;;;;;3972308;29;19964;-48
2024/01/31 01:08:23;;;;;;;;;;;15.00;79.90;;;;;;3967219;29;20058;-48
2024/01/31 01:11:04;;;;;;;;;;;15.10;79.70;;;;;;3967135;29;19936;-50
2024/01/31 01:13:47;;;;;;;;;;;15.20;79.30;;;;;;3967154;29;20301;-48
2024/01/31 01:16:28;;;;;;;;;;;15.20;79.10;;;;;;3966664;29;20325;-48
2024/01/31 01:19:10;;;;;;;;;;;15.30;79.00;;;;;;3952069;29;20051;-49
2024/01/31 01:21:51;;;;;;;;;;;15.30;78.70;;;;;;3954774;29;19940;-51
2024/01/31 01:24:32;;;;;;;;;;;15.30;79.50;;;;;;3967005;29;20123;-50
2024/01/31 01:27:12;;;;;;;;;;;15.30;78.70;;;;;;3966680;29;20293;-49
2024/01/31 01:29:54;;;;;;;;;;;15.20;78.60;;;;;;3966443;29;19936;-48
2024/01/31 01:32:34;;;;;;;;;;;15.20;78.70;;;;;;3966765;29;19947;-49
2024/01/31 01:35:16;;;;;;;;;;;15.30;79.60;;;;;;3966801;29;19931;-47
2024/01/31 01:37:57;;;;;;;;;;;15.40;78.50;;;;;;3967080;29;20310;-47
2024/01/31 01:40:42;;;;;;;;;;;15.40;78.40;;;;;;3967058;29;20030;-47
2024/01/31 01:43:24;;;;;;;;;;;15.40;78.20;;;;;;3965487;29;19945;-46
2024/01/31 01:46:09;;;;;;;;;;;15.50;78.10;;;;;;3955753;29;19936;-50
2024/01/31 01:48:51;;;;;;;;;;;15.50;79.00;;;;;;3966277;29;19932;-47
2024/01/31 01:51:36;;;;;;;;;;;15.50;78.10;;;;;;3955414;29;19931;-46
2024/01/31 01:54:39;;;;;;;;;;;15.60;77.80;;;;;;3966125;29;20395;-46
2024/01/31 01:57:22;;;;;;;;;;;15.60;77.60;;;;;;3950847;29;20078;-45
2024/01/31 02:00:06;;;;;;;;;;;15.70;77.30;;;;;;3954447;29;19936;-48
2024/01/31 02:02:48;;;;;;;;;;;15.70;77.20;;;;;;3966577;29;20036;-46
2024/01/31 02:05:29;;;;;;;;;;;15.70;77.00;;;;;;3955123;29;19948;-49
2024/01/31 02:08:12;;;;;;;;;;;15.70;77.10;;;;;;3967150;29;19935;-50
2024/01/31 02:11:05;;;;;;;;;;;15.80;77.00;;;;;;3966667;29;20076;-45
2024/01/31 02:13:49;;;;;;;;;;;15.80;76.70;;;;;;3964851;29;19932;-41
2024/01/31 02:16:29;;;;;;;;;;;15.90;76.50;;;;;;3966854;29;19952;-44
2024/01/31 02:19:14;;;;;;;;;;;15.90;76.30;;;;;;3966485;29;19986;-42
2024/01/31 02:22:01;;;;;;;;;;;15.90;76.20;;;;;;3959507;29;19932;-43
2024/01/31 02:24:44;;;;;;;;;;;15.90;76.20;;;;;;3966703;29;19935;-42
2024/01/31 02:27:27;;;;;;;;;;;15.90;76.30;;;;;;3966778;29;19932;-43
2024/01/31 02:30:07;;;;;;;;;;;15.90;76.20;;;;;;3966106;29;19939;-43
2024/01/31 02:32:54;;;;;;;;;;;15.90;76.20;;;;;;3973354;29;19932;-41
2024/01/31 02:35:35;;;;;;;;;;;15.90;76.20;;;;;;3981705;29;19971;-42
2024/01/31 02:38:16;;;;;;;;;;;15.90;76.20;;;;;;3983649;29;20284;-46
2024/01/31 02:41:02;;;;;;;;;;;15.90;76.20;;;;;;3983977;29;20320;-44
2024/01/31 02:43:45;;;;;;;;;;;15.90;76.10;;;;;;3967874;29;19939;-42
2024/01/31 02:46:33;;;;;;;;;;;15.90;76.20;;;;;;3969020;29;19987;-42
2024/01/31 02:49:14;;;;;;;;;;;16.00;76.20;;;;;;3960911;29;19931;-42
2024/01/31 02:51:55;;;;;;;;;;;16.00;75.90;;;;;;3954394;29;20381;-41
2024/01/31 02:54:41;;;;;;;;;;;16.00;75.90;;;;;;3962077;29;19931;-42
2024/01/31 02:57:23;;;;;;;;;;;16.00;75.80;;;;;;3968972;29;19936;-42
2024/01/31 03:00:07;;;;;;;;;;;16.00;75.80;;;;;;3968257;29;19941;-41
2024/01/31 03:02:48;;;;;;;;;;;16.00;76.50;;;;;;3968087;29;19952;-41
2024/01/31 03:05:29;;;;;;;;;;;16.10;75.40;;;;;;3968801;29;19932;-45
2024/01/31 03:08:11;;;;;;;;;;;16.20;75.30;;;;;;3954081;29;20078;-45
2024/01/31 03:10:52;;;;;;;;;;;16.20;75.20;;;;;;3968200;29;19933;-42
2024/01/31 03:13:35;;;;;;;;;;;16.10;75.10;;;;;;3968548;29;19936;-41
2024/01/31 03:16:20;;;;;;;;;;;16.20;75.00;;;;;;3968739;29;19936;-48
2024/01/31 03:19:01;;;;;;;;;;;16.20;74.90;;;;;;3967866;29;19936;-46
2024/01/31 03:21:43;;;;;;;;;;;16.20;74.90;;;;;;3968465;29;19932;-46
2024/01/31 03:24:24;;;;;;;;;;;16.20;75.00;;;;;;3953102;29;19936;-49
2024/01/31 03:27:08;;;;;;;;;;;16.10;75.10;;;;;;3954143;29;19997;-48
2024/01/31 03:29:50;;;;;;;;;;;16.00;75.20;;;;;;3965091;29;19936;-47
2024/01/31 03:32:35;;;;;;;;;;;16.00;75.50;;;;;;3968789;29;19980;-48
2024/01/31 03:35:23;;;;;;;;;;;16.00;75.70;;;;;;3968670;29;19952;-51
2024/01/31 03:38:03;;;;;;;;;;;16.10;75.60;;;;;;3967927;29;19936;-50
2024/01/31 03:40:44;;;;;;;;;;;16.10;76.10;;;;;;3952938;29;19981;-47
2024/01/31 03:43:28;;;;;;;;;;;16.20;75.10;;;;;;3966145;29;19951;-49
2024/01/31 03:46:10;;;;;;;;;;;16.20;75.00;;;;;;3968089;29;20085;-46
2024/01/31 03:48:51;;;;;;;;;;;16.20;74.70;;;;;;3967488;29;19936;-48
2024/01/31 03:51:32;;;;;;;;;;;16.20;74.60;;;;;;3968251;29;20399;-48
2024/01/31 03:54:13;;;;;;;;;;;16.20;74.50;;;;;;3967582;29;19940;-48
2024/01/31 03:56:54;;;;;;;;;;;16.30;75.50;;;;;;3957112;29;19968;-46
2024/01/31 03:59:43;;;;;;;;;;;16.20;74.50;;;;;;3968325;29;19932;-47
2024/01/31 04:02:25;;;;;;;;;;;16.30;74.50;;;;;;3967939;29;19952;-47
2024/01/31 04:05:09;;;;;;;;;;;16.20;74.30;;;;;;3967454;29;19936;-47
2024/01/31 04:07:50;;;;;;;;;;;16.20;74.30;;;;;;3967450;29;19932;-47
2024/01/31 04:10:31;;;;;;;;;;;16.20;74.40;;;;;;3967795;29;19936;-48
2024/01/31 04:13:12;;;;;;;;;;;16.20;74.60;;;;;;3956849;29;19940;-47
2024/01/31 04:15:53;;;;;;;;;;;16.20;75.80;;;;;;3967954;29;19950;-51
2024/01/31 04:18:35;;;;;;;;;;;16.20;74.90;;;;;;3966866;29;19940;-49
2024/01/31 04:21:23;;;;;;;;;;;16.30;74.60;;;;;;3966431;29;20453;-49
2024/01/31 04:24:04;;;;;;;;;;;16.30;75.20;;;;;;3952851;29;19932;-47
2024/01/31 04:26:45;;;;;;;;;;;16.40;74.00;;;;;;3952339;29;19931;-50
2024/01/31 04:29:28;;;;;;;;;;;16.30;74.90;;;;;;3982540;29;19947;-47
2024/01/31 04:32:09;;;;;;;;;;;16.30;74.00;;;;;;3952859;29;20404;-46
2024/01/31 04:34:51;;;;;;;;;;;16.40;74.00;;;;;;3952431;29;19978;-48
2024/01/31 04:37:34;;;;;;;;;;;16.40;74.70;;;;;;3953258;29;20119;-48
2024/01/31 04:40:14;;;;;;;;;;;16.30;73.80;;;;;;3970485;29;20013;-51
2024/01/31 04:42:56;;;;;;;;;;;16.30;73.80;;;;;;3957510;29;20428;-47
2024/01/31 04:45:39;;;;;;;;;;;16.20;74.10;;;;;;3967121;29;20048;-49
2024/01/31 04:48:20;;;;;;;;;;;16.20;74.20;;;;;;3966421;29;19936;-46
2024/01/31 04:51:04;;;;;;;;;;;16.30;74.10;;;;;;3967309;29;20445;-52
2024/01/31 04:53:46;;;;;;;;;;;16.40;73.90;;;;;;3967034;29;20748;-47
2024/01/31 04:56:29;;;;;;;;;;;16.40;73.80;;;;;;3951970;29;20297;-49
2024/01/31 04:59:15;;;;;;;;;;;16.40;73.70;;;;;;3952317;29;19931;-48
2024/01/31 05:01:57;;;;;;;;;;;16.40;73.50;;;;;;3951726;29;19937;-50
2024/01/31 05:04:38;;;;;;;;;;;16.40;73.30;;;;;;3952444;29;19932;-49
2024/01/31 05:07:21;;;;;;;;;;;16.40;73.30;;;;;;3961925;29;19971;-48
2024/01/31 05:10:03;;;;;;;;;;;16.40;73.40;;;;;;3966432;29;19985;-46
2024/01/31 05:12:44;;;;;;;;;;;16.40;73.30;;;;;;3966800;29;19936;-46
2024/01/31 05:15:25;;;;;;;;;;;16.50;73.20;;;;;;3966709;29;19936;-49
2024/01/31 05:18:09;;;;;;;;;;;16.50;74.00;;;;;;3975627;29;20609;-47
2024/01/31 05:20:50;;;;;;;;;;;16.40;72.90;;;;;;3940825;29;20277;-46
2024/01/31 05:23:33;;;;;;;;;;;16.40;72.50;;;;;;3952126;29;19932;-49
2024/01/31 05:26:13;;;;;;;;;;;16.30;72.20;;;;;;3950174;29;19952;-47
2024/01/31 05:28:55;;;;;;;;;;;16.30;72.30;;;;;;3950450;29;20309;-47
2024/01/31 05:31:36;;;;;;;;;;;16.30;72.20;;;;;;3967421;29;19992;-46
2024/01/31 05:34:19;;;;;;;;;;;16.30;71.90;;;;;;3981840;29;19969;-47
2024/01/31 05:37:00;;;;;;;;;;;16.40;71.70;;;;;;3982000;29;19971;-47
2024/01/31 05:39:42;;;;;;;;;;;16.40;71.30;;;;;;3982113;29;20380;-46
2024/01/31 05:42:24;;;;;;;;;;;16.40;71.30;;;;;;3975047;29;20035;-47
2024/01/31 05:45:12;;;;;;;;;;;16.40;71.10;;;;;;3966609;29;20301;-46
2024/01/31 05:47:53;;;;;;;;;;;16.50;71.20;;;;;;3965961;29;20403;-48
2024/01/31 05:50:34;;;;;;;;;;;16.40;71.00;;;;;;3966285;29;20046;-46
2024/01/31 05:53:16;;;;;;;;;;;16.40;70.80;;;;;;3977797;29;19974;-46
2024/01/31 05:56:00;;;;;;;;;;;16.40;70.70;;;;;;3966678;29;19971;-49
2024/01/31 05:58:42;;;;;;;;;;;16.40;70.70;;;;;;3955150;29;19936;-43
2024/01/31 06:01:25;;;;;;;;;;;16.40;70.60;;;;;;3966276;29;20400;-43
2024/01/31 06:04:08;;;;;;;;;;;16.40;70.70;;;;;;3951263;29;20054;-41
2024/01/31 06:06:50;;;;;;;;;;;16.40;70.70;;;;;;3958221;29;19975;-42
2024/01/31 06:09:31;;;;;;;;;;;16.40;70.60;;;;;;3966209;29;19975;-43
2024/01/31 06:12:15;;;;;;;;;;;16.40;70.40;;;;;;3967053;29;19932;-42
2024/01/31 06:14:56;;;;;;;;;;;16.50;70.10;;;;;;3968200;29;19932;-43
2024/01/31 06:17:38;;;;;;;;;;;16.50;70.00;;;;;;3969286;29;19936;-41
2024/01/31 06:20:20;;;;;;;;;;;16.50;69.90;;;;;;3982238;29;20392;-42
2024/01/31 06:23:00;;;;;;;;;;;16.50;70.00;;;;;;3983683;29;19985;-42
2024/01/31 06:25:41;;;;;;;;;;;16.50;69.90;;;;;;3982914;29;19936;-41
2024/01/31 06:28:23;;;;;;;;;;;16.50;69.90;;;;;;3954172;29;20479;-42
2024/01/31 06:40:09;;;;;;;;;;;16.40;70.60;;;;;;4371836;24;19976;-52
2024/01/31 06:42:51;;;;;;;;;;;16.50;70.10;;;;;;3970573;29;19932;-39
2024/01/31 06:45:33;;;;;;;;;;;16.50;70.10;;;;;;3969735;29;20031;-40
2024/01/31 06:48:14;;;;;;;;;;;16.40;70.10;;;;;;3969675;29;20407;-39
2024/01/31 06:50:55;;;;;;;;;;;16.40;70.30;;;;;;3958482;29;19936;-39
2024/01/31 06:53:36;;;;;;;;;;;16.40;71.10;;;;;;3969410;29;20433;-39
2024/01/31 06:56:19;;;;;;;;;;;16.40;70.20;;;;;;3969288;29;19936;-40
2024/01/31 06:59:00;;;;;;;;;;;16.40;70.20;;;;;;3969475;29;20058;-40
2024/01/31 07:01:41;;;;;;;;;;;16.40;70.30;;;;;;3969535;29;19981;-40
2024/01/31 07:04:22;;;;;;;;;;;16.40;70.10;;;;;;3972855;29;19932;-41
2024/01/31 07:07:03;;;;;;;;;;;16.40;69.90;;;;;;3976978;29;19936;-41
2024/01/31 07:09:44;;;;;;;;;;;16.40;70.00;;;;;;3972238;29;20316;-40
2024/01/31 07:12:25;;;;;;;;;;;16.40;69.80;;;;;;3983152;29;20073;-43
2024/01/31 07:15:06;;;;;;;;;;;16.50;69.70;;;;;;3983315;29;20000;-41
2024/01/31 07:17:48;;;;;;;;;;;16.50;69.60;;;;;;3981617;29;19936;-41
2024/01/31 07:20:29;;;;;;;;;;;16.40;69.50;;;;;;3968545;29;19936;-40
2024/01/31 07:23:10;;;;;;;;;;;16.40;69.60;;;;;;3958472;29;19971;-40
2024/01/31 07:25:50;;;;;;;;;;;16.40;69.90;;;;;;3957799;29;20288;-41
2024/01/31 07:28:35;;;;;;;;;;;16.30;70.10;;;;;;3968988;29;19936;-39
2024/01/31 07:31:17;;;;;;;;;;;16.30;69.90;;;;;;3968515;29;19937;-40
2024/01/31 07:33:58;;;;;;;;;;;16.30;69.90;;;;;;3978381;29;19932;-41
2024/01/31 07:36:40;;;;;;;;;;;16.30;70.00;;;;;;3983704;29;20014;-42
2024/01/31 07:39:20;;;;;;;;;;;16.20;70.30;;;;;;3970569;29;19936;-40
2024/01/31 07:42:01;;;;;;;;;;;16.20;70.60;;;;;;3969067;29;20288;-39
2024/01/31 07:44:41;;;;;;;;;;;16.20;71.10;;;;;;3964459;29;19981;-41
2024/01/31 07:47:22;;;;;;;;;;;16.30;71.60;;;;;;3968610;29;19982;-46
2024/01/31 07:50:05;;;;;;;;;;;16.30;71.30;;;;;;3968779;29;20400;-40
2024/01/31 07:52:46;;;;;;;;;;;16.40;72.00;;;;;;3968436;29;19936;-43
2024/01/31 07:55:26;;;;;;;;;;;16.50;72.50;;;;;;3968207;29;20403;-41
2024/01/31 07:58:07;;;;;;;;;;;16.60;72.60;;;;;;3966438;29;19940;-42
2024/01/31 08:00:48;;;;;;;;;;;16.50;72.60;;;;;;3963736;29;20016;-40
2024/01/31 08:03:30;;;;;;;;;;;16.50;72.80;;;;;;3965612;29;19975;-40
2024/01/31 08:06:12;;;;;;;;;;;16.60;73.20;;;;;;3957384;29;19977;-41
2024/01/31 08:08:52;;;;;;;;;;;16.60;73.00;;;;;;3967265;29;19940;-42
2024/01/31 08:11:33;;;;;;;;;;;16.60;72.70;;;;;;3967356;29;19936;-42
2024/01/31 08:14:13;;;;;;;;;;;16.60;72.70;;;;;;3980569;29;20347;-42
2024/01/31 08:16:54;;;;;;;;;;;16.60;72.80;;;;;;3957892;29;19937;-41
2024/01/31 08:19:35;;;;;;;;;;;16.60;72.70;;;;;;3967275;29;20297;-40
2024/01/31 08:22:17;;;;;;;;;;;16.60;72.80;;;;;;3967274;29;19979;-40
2024/01/31 08:24:59;;;;;;;;;;;16.50;72.70;;;;;;3955954;29;19936;-41
2024/01/31 08:27:39;;;;;;;;;;;16.50;72.80;;;;;;3966656;29;19983;-41
2024/01/31 08:30:21;;;;;;;;;;;16.50;73.60;;;;;;3967145;29;19940;-41
2024/01/31 08:33:02;;;;;;;;;;;16.40;72.50;;;;;;3956011;29;20296;-41
2024/01/31 08:35:44;;;;;;;;;;;16.40;72.70;;;;;;3967111;29;20033;-41
2024/01/31 08:38:26;;;;;;;;;;;16.40;73.40;;;;;;3966767;29;19932;-41
2024/01/31 08:41:07;;;;;;;;;;;16.40;72.50;;;;;;3974980;29;19939;-40
2024/01/31 08:43:48;;;;;;;;;;;16.40;72.40;;;;;;3970971;29;19973;-41
2024/01/31 08:46:29;;;;;;;;;;;16.40;72.50;;;;;;3982762;29;19961;-41
2024/01/31 08:49:09;;;;;;;;;;;16.50;72.20;;;;;;3982845;29;19951;-41
2024/01/31 08:51:51;;;;;;;;;;;16.60;71.90;;;;;;3966389;29;19932;-43
2024/01/31 08:54:33;;;;;;;;;;;16.60;72.30;;;;;;3968195;29;20054;-43
2024/01/31 08:57:14;;;;;;;;;;;16.60;71.30;;;;;;3967139;29;20689;-41
2024/01/31 08:59:59;;;;;;;;;;;16.60;71.30;;;;;;3966756;29;20407;-42
2024/01/31 09:02:40;;;;;;;;;;;16.60;71.10;;;;;;3967062;29;19936;-42
2024/01/31 09:05:20;;;;;;;;;;;16.60;70.90;;;;;;3967030;29;20013;-42
2024/01/31 09:08:03;;;;;;;;;;;16.60;70.90;;;;;;3956013;29;19932;-42
2024/01/31 09:10:45;;;;;;;;;;;16.60;70.90;;;;;;3967599;29;19951;-42
2024/01/31 09:13:26;;;;;;;;;;;16.60;70.70;;;;;;3967579;29;19935;-42
2024/01/31 09:16:07;;;;;;;;;;;16.60;70.70;;;;;;3967462;29;19936;-42
2024/01/31 09:18:48;;;;;;;;;;;16.70;70.50;;;;;;3966764;29;19935;-48
2024/01/31 09:21:28;;;;;;;;;;;16.60;70.20;;;;;;3974424;29;19931;-47
2024/01/31 09:24:10;;;;;;;;;;;16.60;70.20;;;;;;3982007;29;19936;-47
2024/01/31 09:26:53;;;;;;;;;;;16.60;70.60;;;;;;3970444;29;19932;-46
2024/01/31 09:29:34;;;;;;;;;;;16.60;70.30;;;;;;3980978;29;19936;-47
2024/01/31 09:32:15;;;;;;;;;;;16.60;69.90;;;;;;3950703;29;19978;-51
2024/01/31 09:34:56;;;;;;;;;;;16.70;69.60;;;;;;3960626;29;19936;-48
2024/01/31 09:37:37;;;;;;;;;;;16.60;69.50;;;;;;3977251;29;19931;-48
2024/01/31 09:40:22;;;;;;;;;;;16.60;69.70;;;;;;3980162;29;20372;-51
2024/01/31 09:43:05;;;;;;;;;;;16.60;69.90;;;;;;3981342;29;19932;-42
2024/01/31 09:45:48;;;;;;;;;;;16.60;69.60;;;;;;3971292;29;19935;-42
2024/01/31 09:48:29;;;;;;;;;;;16.70;69.30;;;;;;3964853;29;20300;-49
2024/01/31 09:51:10;;;;;;;;;;;16.70;68.90;;;;;;3965997;29;20066;-49
2024/01/31 09:53:53;;;;;;;;;;;16.70;68.70;;;;;;3962980;29;19940;-48
2024/01/31 09:56:34;;;;;;;;;;;16.70;68.60;;;;;;3948817;29;19937;-48
2024/01/31 09:59:17;;;;;;;;;;;16.70;68.60;;;;;;3951325;29;19937;-47
2024/01/31 10:01:58;;;;;;;;;;;16.60;68.40;;;;;;3950537;29;19982;-48
2024/01/31 10:04:39;;;;;;;;;;;16.60;68.60;;;;;;3941086;29;19932;-47
2024/01/31 10:07:24;;;;;;;;;;;16.60;68.50;;;;;;3966421;29;20412;-50
2024/01/31 10:10:06;;;;;;;;;;;16.60;68.50;;;;;;3964602;29;20010;-47
2024/01/31 10:12:47;;;;;;;;;;;16.60;68.10;;;;;;3967142;29;19973;-51
2024/01/31 10:15:29;;;;;;;;;;;16.60;67.80;;;;;;3966043;29;20058;-49
2024/01/31 10:18:11;;;;;;;;;;;16.60;68.00;;;;;;3965984;29;20001;-50
2024/01/31 10:20:52;;;;;;;;;;;16.60;68.20;;;;;;3965257;29;19936;-48
2024/01/31 10:23:33;;;;;;;;;;;16.60;68.30;;;;;;3966856;29;19931;-49
2024/01/31 10:26:14;;;;;;;;;;;16.60;68.20;;;;;;3955144;29;20372;-48
2024/01/31 10:28:56;;;;;;;;;;;16.70;68.00;;;;;;3953449;29;20022;-47
2024/01/31 10:31:46;;;;;;;;;;;16.70;67.70;;;;;;3952133;29;19958;-48
2024/01/31 10:34:28;;;;;;;;;;;16.70;67.60;;;;;;3967641;29;20338;-48
2024/01/31 10:37:13;;;;;;;;;;;16.70;67.80;;;;;;3979004;29;20442;-49
2024/01/31 10:40:17;;;;;;;;;;;16.70;67.60;;;;;;3978002;29;19951;-51
2024/01/31 10:42:59;;;;;;;;;;;16.80;67.60;;;;;;3954737;29;20312;-49
2024/01/31 10:45:39;;;;;;;;;;;16.80;67.20;;;;;;3978328;29;19936;-49
2024/01/31 10:48:22;;;;;;;;;;;16.80;68.00;;;;;;3981241;29;20526;-49
2024/01/31 10:51:04;;;;;;;;;;;16.80;67.10;;;;;;3949383;29;19932;-49
2024/01/31 10:53:45;;;;;;;;;;;16.70;67.40;;;;;;3961225;29;20253;-47
2024/01/31 10:56:27;;;;;;;;;;;16.70;67.50;;;;;;3952218;29;19936;-50
2024/01/31 10:59:08;;;;;;;;;;;16.70;67.40;;;;;;3964553;29;19931;-48
2024/01/31 11:01:55;;;;;;;;;;;16.70;67.40;;;;;;3969233;29;19936;-48
2024/01/31 11:04:39;;;;;;;;;;;16.70;67.50;;;;;;3968576;29;20396;-48
2024/01/31 11:07:20;;;;;;;;;;;16.70;67.50;;;;;;3950000;29;19968;-47
2024/01/31 11:10:02;;;;;;;;;;;16.80;67.30;;;;;;3958825;29;19933;-48
2024/01/31 11:12:42;;;;;;;;;;;16.80;66.90;;;;;;3966509;29;20304;-47
2024/01/31 11:15:29;;;;;;;;;;;16.80;67.80;;;;;;3967508;29;19935;-47
2024/01/31 11:18:10;;;;;;;;;;;16.90;66.80;;;;;;3972970;29;19932;-47
2024/01/31 11:20:53;;;;;;;;;;;16.90;66.50;;;;;;3950203;29;19967;-46
2024/01/31 11:23:35;;;;;;;;;;;16.90;66.30;;;;;;3954389;29;19986;-47
2024/01/31 11:26:18;;;;;;;;;;;16.80;66.10;;;;;;3967517;29;19932;-47
2024/01/31 11:29:01;;;;;;;;;;;16.80;66.40;;;;;;3958673;29;20411;-47
2024/01/31 11:31:42;;;;;;;;;;;16.70;66.50;;;;;;3950034;29;20047;-46
2024/01/31 11:34:24;;;;;;;;;;;16.70;66.70;;;;;;3966237;29;19936;-50
2024/01/31 11:37:06;;;;;;;;;;;16.60;66.90;;;;;;3968295;29;20070;-47
2024/01/31 11:39:47;;;;;;;;;;;16.60;66.90;;;;;;3966342;29;19932;-41
2024/01/31 11:42:28;;;;;;;;;;;16.60;66.90;;;;;;3953128;29;20054;-41
2024/01/31 11:45:10;;;;;;;;;;;16.60;67.00;;;;;;3954307;29;19936;-41
2024/01/31 11:47:51;;;;;;;;;;;16.50;66.90;;;;;;3940297;29;19936;-40
2024/01/31 11:50:32;;;;;;;;;;;16.40;67.10;;;;;;3949840;29;19936;-40
2024/01/31 11:53:15;;;;;;;;;;;16.40;67.70;;;;;;3956871;29;20421;-41
2024/01/31 11:55:56;;;;;;;;;;;16.30;68.00;;;;;;3964341;29;19932;-41
2024/01/31 11:58:37;;;;;;;;;;;16.30;68.20;;;;;;3955652;29;19932;-41
2024/01/31 12:01:19;;;;;;;;;;;16.40;68.20;;;;;;3963924;29;19931;-48
2024/01/31 12:04:01;;;;;;;;;;;16.40;68.10;;;;;;3952795;29;19936;-47
2024/01/31 12:06:41;;;;;;;;;;;16.40;68.10;;;;;;3951674;29;20001;-41
2024/01/31 12:09:24;;;;;;;;;;;16.40;68.30;;;;;;3963813;29;20346;-48
2024/01/31 12:12:05;;;;;;;;;;;16.40;68.40;;;;;;3966675;29;20261;-47
2024/01/31 12:14:49;;;;;;;;;;;16.50;69.00;;;;;;3952296;29;20316;-46
2024/01/31 12:17:30;;;;;;;;;;;16.60;68.00;;;;;;3950865;29;20023;-46
2024/01/31 12:20:12;;;;;;;;;;;16.60;67.80;;;;;;3950386;29;20373;-46
2024/01/31 12:22:53;;;;;;;;;;;16.60;67.90;;;;;;3957057;29;19965;-47
2024/01/31 12:25:35;;;;;;;;;;;16.50;67.90;;;;;;3974682;29;19935;-49
2024/01/31 12:28:16;;;;;;;;;;;16.60;68.00;;;;;;3973749;29;19945;-47
2024/01/31 12:30:57;;;;;;;;;;;16.60;67.80;;;;;;3966019;29;20105;-46
2024/01/31 12:33:38;;;;;;;;;;;16.70;67.90;;;;;;3966691;29;19939;-46
2024/01/31 12:36:20;;;;;;;;;;;16.80;67.90;;;;;;3967434;29;19936;-49
2024/01/31 12:39:01;;;;;;;;;;;16.80;67.70;;;;;;3980510;29;20392;-49
2024/01/31 12:41:43;;;;;;;;;;;16.80;67.60;;;;;;3981914;29;19956;-41
2024/01/31 12:44:27;;;;;;;;;;;16.80;67.30;;;;;;3968117;29;19967;-41
2024/01/31 12:47:08;;;;;;;;;;;16.80;67.50;;;;;;3966642;29;19936;-41
2024/01/31 12:49:49;;;;;;;;;;;16.70;67.60;;;;;;3954439;29;20600;-41
2024/01/31 12:52:31;;;;;;;;;;;16.70;67.90;;;;;;3960569;29;20058;-40
2024/01/31 12:55:12;;;;;;;;;;;16.60;68.10;;;;;;3964217;29;20021;-41
2024/01/31 12:57:55;;;;;;;;;;;16.50;68.20;;;;;;3964900;29;20407;-41
2024/01/31 13:00:35;;;;;;;;;;;16.40;68.60;;;;;;3960340;29;20017;-41
2024/01/31 13:03:16;;;;;;;;;;;16.30;69.00;;;;;;3949903;29;20486;-41
2024/01/31 13:05:57;;;;;;;;;;;16.30;69.30;;;;;;3961724;29;20304;-41
2024/01/31 13:08:38;;;;;;;;;;;16.30;69.40;;;;;;3959762;29;20316;-41
2024/01/31 13:11:22;;;;;;;;;;;16.30;69.30;;;;;;3964566;29;20441;-48
2024/01/31 13:14:05;;;;;;;;;;;16.30;69.30;;;;;;3963417;29;19967;-41
2024/01/31 13:16:45;;;;;;;;;;;16.40;70.30;;;;;;3964530;29;19936;-47
2024/01/31 13:19:30;;;;;;;;;;;16.40;69.00;;;;;;3962815;29;19947;-49
2024/01/31 13:22:12;;;;;;;;;;;16.60;68.60;;;;;;3962780;29;19975;-47
2024/01/31 13:24:53;;;;;;;;;;;16.80;68.00;;;;;;3961728;29;19944;-48
2024/01/31 13:27:34;;;;;;;;;;;16.80;67.60;;;;;;3963033;29;20613;-47
2024/01/31 13:30:16;;;;;;;;;;;16.90;67.40;;;;;;3959113;29;20410;-51
2024/01/31 13:32:58;;;;;;;;;;;16.90;67.30;;;;;;3960863;29;20301;-48
2024/01/31 13:35:39;;;;;;;;;;;16.90;67.20;;;;;;3961793;29;19944;-47
2024/01/31 13:38:20;;;;;;;;;;;16.90;67.10;;;;;;3960664;29;19936;-48
2024/01/31 13:41:02;;;;;;;;;;;16.90;67.10;;;;;;3952604;29;20074;-51
2024/01/31 13:43:42;;;;;;;;;;;16.90;67.00;;;;;;3960775;29;19932;-51
2024/01/31 13:46:24;;;;;;;;;;;17.00;66.80;;;;;;3964642;29;19954;-48
2024/01/31 13:49:06;;;;;;;;;;;17.00;67.80;;;;;;3951902;29;20297;-48
2024/01/31 13:51:47;;;;;;;;;;;17.00;67.20;;;;;;3961123;29;19935;-49
2024/01/31 13:54:28;;;;;;;;;;;17.00;67.10;;;;;;3959927;29;19936;-48
2024/01/31 13:57:09;;;;;;;;;;;17.00;67.10;;;;;;3961369;29;20410;-42
2024/01/31 13:59:50;;;;;;;;;;;17.00;67.00;;;;;;3960061;29;20041;-42
2024/01/31 14:02:32;;;;;;;;;;;16.90;67.10;;;;;;3958542;29;20037;-42
2024/01/31 14:05:13;;;;;;;;;;;16.90;67.10;;;;;;3962001;29;19936;-42
2024/01/31 14:07:55;;;;;;;;;;;16.90;67.10;;;;;;3959831;29;19932;-42
2024/01/31 14:10:36;;;;;;;;;;;16.90;67.00;;;;;;3962733;29;19994;-43
2024/01/31 14:13:17;;;;;;;;;;;16.90;67.80;;;;;;3959461;29;19944;-42
2024/01/31 14:15:58;;;;;;;;;;;16.90;67.00;;;;;;3936341;29;19979;-42
2024/01/31 14:18:40;;;;;;;;;;;16.90;67.10;;;;;;3954371;29;20012;-42
2024/01/31 14:21:22;;;;;;;;;;;17.00;66.50;;;;;;3959946;29;20407;-42
2024/01/31 14:24:02;;;;;;;;;;;17.00;66.40;;;;;;3951799;29;20034;-43
2024/01/31 14:26:48;;;;;;;;;;;17.00;66.20;;;;;;3962621;29;20042;-43
2024/01/31 14:29:29;;;;;;;;;;;17.00;66.20;;;;;;3960225;29;19936;-43
2024/01/31 14:32:12;;;;;;;;;;;17.00;66.40;;;;;;3963749;29;19932;-42
2024/01/31 14:34:55;;;;;;;;;;;17.00;67.50;;;;;;3966960;29;20048;-43
2024/01/31 14:37:36;;;;;;;;;;;16.90;66.60;;;;;;3966815;29;19936;-42
2024/01/31 14:40:17;;;;;;;;;;;16.80;66.70;;;;;;3966847;29;19939;-43
2024/01/31 14:42:58;;;;;;;;;;;16.80;66.90;;;;;;3965647;29;19964;-42
2024/01/31 14:45:41;;;;;;;;;;;16.70;67.30;;;;;;3967136;29;19932;-47
2024/01/31 14:48:22;;;;;;;;;;;16.70;67.10;;;;;;3966224;29;20065;-42
2024/01/31 14:51:05;;;;;;;;;;;16.70;67.00;;;;;;3966509;29;20066;-42
2024/01/31 14:53:46;;;;;;;;;;;16.70;67.10;;;;;;3967742;29;20013;-41
2024/01/31 14:56:27;;;;;;;;;;;16.70;66.90;;;;;;3968521;29;19981;-43
2024/01/31 14:59:07;;;;;;;;;;;16.80;67.00;;;;;;3969218;29;20028;-41
2024/01/31 15:01:49;;;;;;;;;;;16.80;66.90;;;;;;3981589;29;19967;-43
2024/01/31 15:04:29;;;;;;;;;;;16.80;66.90;;;;;;3983728;29;19932;-42
2024/01/31 15:07:11;;;;;;;;;;;16.70;66.80;;;;;;3983849;29;19945;-42
2024/01/31 15:09:52;;;;;;;;;;;16.70;66.50;;;;;;3980658;29;19936;-43
2024/01/31 15:12:33;;;;;;;;;;;16.70;66.60;;;;;;3983245;29;19931;-42
2024/01/31 15:15:14;;;;;;;;;;;16.70;67.50;;;;;;3982550;29;19932;-42
2024/01/31 15:17:55;;;;;;;;;;;16.60;66.70;;;;;;3982927;29;19936;-41
2024/01/31 15:20:37;;;;;;;;;;;16.60;66.80;;;;;;3972139;29;20699;-41
2024/01/31 15:23:19;;;;;;;;;;;16.60;67.00;;;;;;3971572;29;20395;-42
2024/01/31 15:26:00;;;;;;;;;;;16.60;67.00;;;;;;3972891;29;19941;-43
2024/01/31 15:28:41;;;;;;;;;;;16.60;66.90;;;;;;3968380;29;20305;-42
2024/01/31 15:31:22;;;;;;;;;;;16.70;67.70;;;;;;3967126;29;19932;-48
2024/01/31 15:34:03;;;;;;;;;;;16.70;66.70;;;;;;3967552;29;20025;-41
2024/01/31 15:36:45;;;;;;;;;;;16.70;66.60;;;;;;3968634;29;19963;-42
2024/01/31 15:39:28;;;;;;;;;;;16.70;66.70;;;;;;3967963;29;19991;-43
2024/01/31 15:42:08;;;;;;;;;;;16.80;66.70;;;;;;3968149;29;20401;-47
2024/01/31 15:44:49;;;;;;;;;;;16.80;66.40;;;;;;3973613;29;19936;-44
2024/01/31 15:47:30;;;;;;;;;;;16.90;66.30;;;;;;3954427;29;19933;-44
2024/01/31 15:50:12;;;;;;;;;;;17.00;66.40;;;;;;3966263;29;20301;-45